sensor_id;sensor_type;location;lat;lon;timestamp;P1;durP1;ratioP1;P2;durP2;ratioP2
18532;SDS011;9396;51.510;11.934;2022-08-19T00:00:50;21.83;;;16.73;;
18532;SDS011;9396;51.510;11.934;2022-08-19T00:03:17;21.20;;;17.37;;
18532;SDS011;9396;51.510;11.934;2022-08-19T00:05:43;18.37;;;16.40;;
18532;SDS011;9396;51.510;11.934;2022-08-19T00:08:10;19.20;;;16.83;;
18532;SDS011;9396;51.510;11.934;2022-08-19T00:10:38;20.07;;;16.90;;
18532;SDS011;9396;51.510;11.934;2022-08-19T00:13:05;19.33;;;16.30;;
18532;SDS011;9396;51.510;11.934;2022-08-19T00:15:32;20.57;;;16.83;;
18532;SDS011;9396;51.510;11.934;2022-08-19T00:17:59;21.40;;;16.10;;
18532;SDS011;9396;51.510;11.934;2022-08-19T00:20:25;20.20;;;16.60;;
18532;SDS011;9396;51.510;11.934;2022-08-19T00:22:52;23.27;;;17.30;;
18532;SDS011;9396;51.510;11.934;2022-08-19T00:25:19;21.03;;;17.27;;
18532;SDS011;9396;51.510;11.934;2022-08-19T00:27:47;18.93;;;16.77;;
18532;SDS011;9396;51.510;11.934;2022-08-19T00:30:15;20.87;;;17.33;;
18532;SDS011;9396;51.510;11.934;2022-08-19T00:32:42;20.33;;;17.33;;
18532;SDS011;9396;51.510;11.934;2022-08-19T00:35:09;22.20;;;17.97;;
18532;SDS011;9396;51.510;11.934;2022-08-19T00:37:36;22.97;;;17.07;;
18532;SDS011;9396;51.510;11.934;2022-08-19T00:40:04;20.90;;;16.20;;
18532;SDS011;9396;51.510;11.934;2022-08-19T00:42:32;20.47;;;18.27;;
18532;SDS011;9396;51.510;11.934;2022-08-19T00:45:00;22.60;;;18.03;;
18532;SDS011;9396;51.510;11.934;2022-08-19T00:47:34;24.87;;;18.10;;
18532;SDS011;9396;51.510;11.934;2022-08-19T00:50:00;22.40;;;18.97;;
18532;SDS011;9396;51.510;11.934;2022-08-19T00:52:29;21.03;;;18.70;;
18532;SDS011;9396;51.510;11.934;2022-08-19T00:55:01;25.03;;;19.03;;
18532;SDS011;9396;51.510;11.934;2022-08-19T00:57:30;21.20;;;17.10;;
18532;SDS011;9396;51.510;11.934;2022-08-19T01:00:04;22.53;;;18.33;;
18532;SDS011;9396;51.510;11.934;2022-08-19T01:02:33;20.47;;;18.13;;
18532;SDS011;9396;51.510;11.934;2022-08-19T01:05:00;21.57;;;17.13;;
18532;SDS011;9396;51.510;11.934;2022-08-19T01:07:30;20.70;;;17.90;;
18532;SDS011;9396;51.510;11.934;2022-08-19T01:09:57;21.53;;;17.53;;
18532;SDS011;9396;51.510;11.934;2022-08-19T01:12:24;23.20;;;18.17;;
18532;SDS011;9396;51.510;11.934;2022-08-19T01:14:50;20.73;;;17.37;;
18532;SDS011;9396;51.510;11.934;2022-08-19T01:17:19;21.33;;;17.77;;
18532;SDS011;9396;51.510;11.934;2022-08-19T01:19:47;20.73;;;18.03;;
18532;SDS011;9396;51.510;11.934;2022-08-19T01:22:16;21.40;;;18.00;;
18532;SDS011;9396;51.510;11.934;2022-08-19T01:24:49;22.93;;;18.50;;
18532;SDS011;9396;51.510;11.934;2022-08-19T01:27:16;21.10;;;17.33;;
18532;SDS011;9396;51.510;11.934;2022-08-19T01:29:43;22.40;;;18.43;;
18532;SDS011;9396;51.510;11.934;2022-08-19T01:32:11;22.80;;;18.70;;
18532;SDS011;9396;51.510;11.934;2022-08-19T01:34:39;21.50;;;18.27;;
18532;SDS011;9396;51.510;11.934;2022-08-19T01:37:07;23.33;;;17.77;;
18532;SDS011;9396;51.510;11.934;2022-08-19T01:39:36;23.13;;;18.97;;
18532;SDS011;9396;51.510;11.934;2022-08-19T01:42:06;21.53;;;18.83;;
18532;SDS011;9396;51.510;11.934;2022-08-19T01:44:36;20.20;;;18.07;;
18532;SDS011;9396;51.510;11.934;2022-08-19T01:47:03;22.17;;;19.33;;
18532;SDS011;9396;51.510;11.934;2022-08-19T01:49:31;23.53;;;19.33;;
18532;SDS011;9396;51.510;11.934;2022-08-19T01:51:58;24.17;;;19.60;;
18532;SDS011;9396;51.510;11.934;2022-08-19T01:54:26;24.37;;;21.30;;
18532;SDS011;9396;51.510;11.934;2022-08-19T01:56:53;23.10;;;20.60;;
18532;SDS011;9396;51.510;11.934;2022-08-19T01:59:27;24.43;;;21.53;;
18532;SDS011;9396;51.510;11.934;2022-08-19T02:01:54;25.07;;;21.90;;
18532;SDS011;9396;51.510;11.934;2022-08-19T02:04:21;29.93;;;23.00;;
18532;SDS011;9396;51.510;11.934;2022-08-19T02:06:48;30.90;;;22.97;;
18532;SDS011;9396;51.510;11.934;2022-08-19T02:09:15;31.40;;;23.97;;
18532;SDS011;9396;51.510;11.934;2022-08-19T02:11:42;27.87;;;23.43;;
18532;SDS011;9396;51.510;11.934;2022-08-19T02:14:09;28.97;;;24.17;;
18532;SDS011;9396;51.510;11.934;2022-08-19T02:16:37;28.63;;;24.07;;
18532;SDS011;9396;51.510;11.934;2022-08-19T02:19:05;27.30;;;23.77;;
18532;SDS011;9396;51.510;11.934;2022-08-19T02:21:31;31.70;;;24.67;;
18532;SDS011;9396;51.510;11.934;2022-08-19T02:23:59;27.50;;;23.53;;
18532;SDS011;9396;51.510;11.934;2022-08-19T02:26:26;30.67;;;23.87;;
18532;SDS011;9396;51.510;11.934;2022-08-19T02:28:53;30.30;;;24.43;;
18532;SDS011;9396;51.510;11.934;2022-08-19T02:31:21;29.73;;;25.40;;
18532;SDS011;9396;51.510;11.934;2022-08-19T02:33:50;33.50;;;24.73;;
18532;SDS011;9396;51.510;11.934;2022-08-19T02:36:18;29.13;;;24.97;;
18532;SDS011;9396;51.510;11.934;2022-08-19T02:38:44;31.33;;;25.53;;
18532;SDS011;9396;51.510;11.934;2022-08-19T02:41:12;30.37;;;25.77;;
18532;SDS011;9396;51.510;11.934;2022-08-19T02:43:41;30.30;;;24.73;;
18532;SDS011;9396;51.510;11.934;2022-08-19T02:46:12;34.00;;;26.63;;
18532;SDS011;9396;51.510;11.934;2022-08-19T02:48:40;31.83;;;25.93;;
18532;SDS011;9396;51.510;11.934;2022-08-19T02:51:08;31.67;;;26.60;;
18532;SDS011;9396;51.510;11.934;2022-08-19T02:53:42;30.37;;;26.47;;
18532;SDS011;9396;51.510;11.934;2022-08-19T02:56:09;33.53;;;27.27;;
18532;SDS011;9396;51.510;11.934;2022-08-19T02:58:36;31.90;;;25.77;;
18532;SDS011;9396;51.510;11.934;2022-08-19T03:01:03;33.97;;;27.60;;
18532;SDS011;9396;51.510;11.934;2022-08-19T03:03:29;32.50;;;27.37;;
18532;SDS011;9396;51.510;11.934;2022-08-19T03:06:07;33.37;;;26.40;;
18532;SDS011;9396;51.510;11.934;2022-08-19T03:08:38;31.53;;;26.50;;
18532;SDS011;9396;51.510;11.934;2022-08-19T03:11:06;34.17;;;28.03;;
18532;SDS011;9396;51.510;11.934;2022-08-19T03:13:32;33.63;;;27.10;;
18532;SDS011;9396;51.510;11.934;2022-08-19T03:15:59;32.97;;;27.57;;
18532;SDS011;9396;51.510;11.934;2022-08-19T03:18:26;32.07;;;27.87;;
18532;SDS011;9396;51.510;11.934;2022-08-19T03:20:53;35.10;;;27.80;;
18532;SDS011;9396;51.510;11.934;2022-08-19T03:23:21;34.60;;;28.63;;
18532;SDS011;9396;51.510;11.934;2022-08-19T03:25:52;33.57;;;28.83;;
18532;SDS011;9396;51.510;11.934;2022-08-19T03:28:19;34.07;;;28.40;;
18532;SDS011;9396;51.510;11.934;2022-08-19T03:30:56;35.23;;;29.53;;
18532;SDS011;9396;51.510;11.934;2022-08-19T03:33:24;37.93;;;28.47;;
18532;SDS011;9396;51.510;11.934;2022-08-19T03:36:05;37.03;;;29.10;;
18532;SDS011;9396;51.510;11.934;2022-08-19T03:38:36;35.97;;;29.53;;
18532;SDS011;9396;51.510;11.934;2022-08-19T03:41:05;34.73;;;28.40;;
18532;SDS011;9396;51.510;11.934;2022-08-19T03:43:34;38.10;;;29.37;;
18532;SDS011;9396;51.510;11.934;2022-08-19T03:46:03;39.27;;;29.93;;
18532;SDS011;9396;51.510;11.934;2022-08-19T03:48:32;36.10;;;29.07;;
18532;SDS011;9396;51.510;11.934;2022-08-19T03:51:00;33.00;;;28.70;;
18532;SDS011;9396;51.510;11.934;2022-08-19T03:53:28;38.03;;;29.57;;
18532;SDS011;9396;51.510;11.934;2022-08-19T03:55:57;33.93;;;28.27;;
18532;SDS011;9396;51.510;11.934;2022-08-19T03:58:25;33.33;;;28.03;;
18532;SDS011;9396;51.510;11.934;2022-08-19T04:00:52;34.13;;;28.80;;
18532;SDS011;9396;51.510;11.934;2022-08-19T04:03:19;34.17;;;28.80;;
18532;SDS011;9396;51.510;11.934;2022-08-19T04:05:46;31.17;;;27.87;;
18532;SDS011;9396;51.510;11.934;2022-08-19T04:08:13;34.30;;;28.50;;
18532;SDS011;9396;51.510;11.934;2022-08-19T04:10:43;32.70;;;27.67;;
18532;SDS011;9396;51.510;11.934;2022-08-19T04:13:11;33.03;;;28.47;;
18532;SDS011;9396;51.510;11.934;2022-08-19T04:15:38;32.13;;;27.87;;
18532;SDS011;9396;51.510;11.934;2022-08-19T04:18:07;33.33;;;27.37;;
18532;SDS011;9396;51.510;11.934;2022-08-19T04:20:38;32.50;;;26.87;;
18532;SDS011;9396;51.510;11.934;2022-08-19T04:23:06;31.73;;;27.07;;
18532;SDS011;9396;51.510;11.934;2022-08-19T04:25:35;32.07;;;26.90;;
18532;SDS011;9396;51.510;11.934;2022-08-19T04:28:03;31.73;;;26.80;;
18532;SDS011;9396;51.510;11.934;2022-08-19T04:30:31;33.20;;;27.53;;
18532;SDS011;9396;51.510;11.934;2022-08-19T04:33:04;34.50;;;27.23;;
18532;SDS011;9396;51.510;11.934;2022-08-19T04:35:34;31.83;;;26.33;;
18532;SDS011;9396;51.510;11.934;2022-08-19T04:38:01;33.47;;;26.57;;
18532;SDS011;9396;51.510;11.934;2022-08-19T04:40:28;31.37;;;25.97;;
18532;SDS011;9396;51.510;11.934;2022-08-19T04:43:12;31.47;;;25.67;;
18532;SDS011;9396;51.510;11.934;2022-08-19T04:45:42;30.33;;;25.90;;
18532;SDS011;9396;51.510;11.934;2022-08-19T04:48:08;32.00;;;25.30;;
18532;SDS011;9396;51.510;11.934;2022-08-19T04:50:35;34.37;;;25.77;;
18532;SDS011;9396;51.510;11.934;2022-08-19T04:53:02;34.47;;;26.10;;
18532;SDS011;9396;51.510;11.934;2022-08-19T04:55:29;32.37;;;25.37;;
18532;SDS011;9396;51.510;11.934;2022-08-19T04:57:56;30.40;;;25.53;;
18532;SDS011;9396;51.510;11.934;2022-08-19T05:00:23;31.80;;;26.83;;
18532;SDS011;9396;51.510;11.934;2022-08-19T05:02:51;30.20;;;25.27;;
18532;SDS011;9396;51.510;11.934;2022-08-19T05:05:18;32.97;;;25.13;;
18532;SDS011;9396;51.510;11.934;2022-08-19T05:07:44;29.90;;;25.33;;
18532;SDS011;9396;51.510;11.934;2022-08-19T05:10:11;34.27;;;24.60;;
18532;SDS011;9396;51.510;11.934;2022-08-19T05:12:38;29.87;;;24.13;;
18532;SDS011;9396;51.510;11.934;2022-08-19T05:15:06;31.83;;;24.63;;
18532;SDS011;9396;51.510;11.934;2022-08-19T05:17:34;28.67;;;24.30;;
18532;SDS011;9396;51.510;11.934;2022-08-19T05:20:02;33.33;;;24.83;;
18532;SDS011;9396;51.510;11.934;2022-08-19T05:22:47;30.40;;;23.80;;
18532;SDS011;9396;51.510;11.934;2022-08-19T05:25:15;30.40;;;24.50;;
18532;SDS011;9396;51.510;11.934;2022-08-19T05:27:44;29.17;;;22.40;;
18532;SDS011;9396;51.510;11.934;2022-08-19T05:30:11;26.00;;;23.07;;
18532;SDS011;9396;51.510;11.934;2022-08-19T05:32:38;30.60;;;23.47;;
18532;SDS011;9396;51.510;11.934;2022-08-19T05:35:07;28.27;;;22.47;;
18532;SDS011;9396;51.510;11.934;2022-08-19T05:37:34;29.53;;;22.60;;
18532;SDS011;9396;51.510;11.934;2022-08-19T05:40:01;25.67;;;21.50;;
18532;SDS011;9396;51.510;11.934;2022-08-19T05:42:29;24.73;;;20.73;;
18532;SDS011;9396;51.510;11.934;2022-08-19T05:44:55;29.00;;;22.03;;
18532;SDS011;9396;51.510;11.934;2022-08-19T05:47:22;25.13;;;20.80;;
18532;SDS011;9396;51.510;11.934;2022-08-19T05:49:49;22.57;;;19.83;;
18532;SDS011;9396;51.510;11.934;2022-08-19T05:52:18;25.87;;;19.40;;
18532;SDS011;9396;51.510;11.934;2022-08-19T05:54:45;23.77;;;18.63;;
18532;SDS011;9396;51.510;11.934;2022-08-19T05:57:13;25.37;;;18.93;;
18532;SDS011;9396;51.510;11.934;2022-08-19T05:59:40;21.73;;;17.47;;
18532;SDS011;9396;51.510;11.934;2022-08-19T06:02:07;22.23;;;18.67;;
18532;SDS011;9396;51.510;11.934;2022-08-19T06:04:35;24.47;;;18.17;;
18532;SDS011;9396;51.510;11.934;2022-08-19T06:07:02;19.60;;;16.57;;
18532;SDS011;9396;51.510;11.934;2022-08-19T06:09:31;21.33;;;17.27;;
18532;SDS011;9396;51.510;11.934;2022-08-19T06:11:58;20.97;;;15.77;;
18532;SDS011;9396;51.510;11.934;2022-08-19T06:14:29;16.87;;;14.67;;
18532;SDS011;9396;51.510;11.934;2022-08-19T06:16:59;21.00;;;15.37;;
18532;SDS011;9396;51.510;11.934;2022-08-19T06:19:26;17.80;;;14.80;;
18532;SDS011;9396;51.510;11.934;2022-08-19T06:21:55;20.10;;;14.40;;
18532;SDS011;9396;51.510;11.934;2022-08-19T06:24:24;17.00;;;13.30;;
18532;SDS011;9396;51.510;11.934;2022-08-19T06:26:54;20.47;;;15.03;;
18532;SDS011;9396;51.510;11.934;2022-08-19T06:29:23;18.17;;;14.47;;
18532;SDS011;9396;51.510;11.934;2022-08-19T06:31:52;15.33;;;13.50;;
18532;SDS011;9396;51.510;11.934;2022-08-19T06:34:21;18.37;;;14.50;;
18532;SDS011;9396;51.510;11.934;2022-08-19T06:36:49;16.50;;;12.80;;
18532;SDS011;9396;51.510;11.934;2022-08-19T06:39:18;13.77;;;12.40;;
18532;SDS011;9396;51.510;11.934;2022-08-19T06:41:47;20.63;;;13.10;;
18532;SDS011;9396;51.510;11.934;2022-08-19T06:44:17;15.77;;;13.27;;
18532;SDS011;9396;51.510;11.934;2022-08-19T06:46:44;12.53;;;10.83;;
18532;SDS011;9396;51.510;11.934;2022-08-19T06:49:11;14.40;;;12.10;;
18532;SDS011;9396;51.510;11.934;2022-08-19T06:51:40;17.10;;;12.90;;
18532;SDS011;9396;51.510;11.934;2022-08-19T06:54:07;13.90;;;12.37;;
18532;SDS011;9396;51.510;11.934;2022-08-19T06:56:34;14.53;;;11.33;;
18532;SDS011;9396;51.510;11.934;2022-08-19T06:59:01;16.60;;;12.10;;
18532;SDS011;9396;51.510;11.934;2022-08-19T07:01:34;16.00;;;12.83;;
18532;SDS011;9396;51.510;11.934;2022-08-19T07:04:02;16.53;;;11.80;;
18532;SDS011;9396;51.510;11.934;2022-08-19T07:06:30;14.00;;;12.17;;
18532;SDS011;9396;51.510;11.934;2022-08-19T07:08:57;16.70;;;11.70;;
18532;SDS011;9396;51.510;11.934;2022-08-19T07:11:24;14.70;;;12.90;;
18532;SDS011;9396;51.510;11.934;2022-08-19T07:13:51;15.00;;;11.50;;
18532;SDS011;9396;51.510;11.934;2022-08-19T07:16:18;14.67;;;12.03;;
18532;SDS011;9396;51.510;11.934;2022-08-19T07:18:47;18.63;;;13.00;;
18532;SDS011;9396;51.510;11.934;2022-08-19T07:21:15;14.63;;;12.27;;
18532;SDS011;9396;51.510;11.934;2022-08-19T07:23:44;17.40;;;12.47;;
18532;SDS011;9396;51.510;11.934;2022-08-19T07:26:13;14.40;;;11.73;;
18532;SDS011;9396;51.510;11.934;2022-08-19T07:28:42;15.00;;;11.37;;
18532;SDS011;9396;51.510;11.934;2022-08-19T07:31:10;15.43;;;12.07;;
18532;SDS011;9396;51.510;11.934;2022-08-19T07:33:39;16.43;;;12.10;;
18532;SDS011;9396;51.510;11.934;2022-08-19T07:36:09;14.50;;;12.20;;
18532;SDS011;9396;51.510;11.934;2022-08-19T07:38:39;15.90;;;11.10;;
18532;SDS011;9396;51.510;11.934;2022-08-19T07:41:08;14.43;;;11.67;;
18532;SDS011;9396;51.510;11.934;2022-08-19T07:43:36;15.20;;;11.73;;
18532;SDS011;9396;51.510;11.934;2022-08-19T07:46:03;13.50;;;11.07;;
18532;SDS011;9396;51.510;11.934;2022-08-19T07:48:30;13.23;;;10.17;;
18532;SDS011;9396;51.510;11.934;2022-08-19T07:50:58;14.47;;;11.00;;
18532;SDS011;9396;51.510;11.934;2022-08-19T07:53:28;16.93;;;11.90;;
18532;SDS011;9396;51.510;11.934;2022-08-19T07:55:56;15.03;;;11.60;;
18532;SDS011;9396;51.510;11.934;2022-08-19T07:58:26;13.70;;;11.17;;
18532;SDS011;9396;51.510;11.934;2022-08-19T08:00:53;13.57;;;10.77;;
18532;SDS011;9396;51.510;11.934;2022-08-19T08:03:20;14.60;;;10.73;;
18532;SDS011;9396;51.510;11.934;2022-08-19T08:06:08;13.47;;;11.63;;
18532;SDS011;9396;51.510;11.934;2022-08-19T08:08:54;13.97;;;11.50;;
18532;SDS011;9396;51.510;11.934;2022-08-19T08:11:47;13.23;;;10.73;;
18532;SDS011;9396;51.510;11.934;2022-08-19T08:14:17;16.73;;;11.17;;
18532;SDS011;9396;51.510;11.934;2022-08-19T08:16:47;15.93;;;11.00;;
18532;SDS011;9396;51.510;11.934;2022-08-19T08:19:16;14.87;;;10.70;;
18532;SDS011;9396;51.510;11.934;2022-08-19T08:21:44;12.63;;;11.30;;
18532;SDS011;9396;51.510;11.934;2022-08-19T08:24:12;13.33;;;10.93;;
18532;SDS011;9396;51.510;11.934;2022-08-19T08:26:39;11.47;;;10.37;;
18532;SDS011;9396;51.510;11.934;2022-08-19T08:29:07;18.50;;;11.00;;
18532;SDS011;9396;51.510;11.934;2022-08-19T08:31:36;15.20;;;10.30;;
18532;SDS011;9396;51.510;11.934;2022-08-19T08:34:03;15.23;;;10.40;;
18532;SDS011;9396;51.510;11.934;2022-08-19T08:36:30;12.40;;;10.60;;
18532;SDS011;9396;51.510;11.934;2022-08-19T08:38:58;11.93;;;10.00;;
18532;SDS011;9396;51.510;11.934;2022-08-19T08:41:28;14.83;;;10.00;;
18532;SDS011;9396;51.510;11.934;2022-08-19T08:44:00;11.83;;;10.23;;
18532;SDS011;9396;51.510;11.934;2022-08-19T08:46:30;11.30;;;9.07;;
18532;SDS011;9396;51.510;11.934;2022-08-19T08:49:05;11.17;;;9.20;;
18532;SDS011;9396;51.510;11.934;2022-08-19T08:51:46;9.90;;;8.97;;
18532;SDS011;9396;51.510;11.934;2022-08-19T08:54:18;10.43;;;9.30;;
18532;SDS011;9396;51.510;11.934;2022-08-19T08:56:48;13.63;;;9.83;;
18532;SDS011;9396;51.510;11.934;2022-08-19T08:59:19;10.23;;;8.80;;
18532;SDS011;9396;51.510;11.934;2022-08-19T09:01:47;11.10;;;9.67;;
18532;SDS011;9396;51.510;11.934;2022-08-19T09:04:14;11.23;;;9.03;;
18532;SDS011;9396;51.510;11.934;2022-08-19T09:06:44;13.17;;;9.23;;
18532;SDS011;9396;51.510;11.934;2022-08-19T09:09:18;10.87;;;8.73;;
18532;SDS011;9396;51.510;11.934;2022-08-19T09:12:00;16.70;;;9.50;;
18532;SDS011;9396;51.510;11.934;2022-08-19T09:14:35;13.13;;;9.23;;
18532;SDS011;9396;51.510;11.934;2022-08-19T09:17:06;9.23;;;8.20;;
18532;SDS011;9396;51.510;11.934;2022-08-19T09:19:34;10.13;;;8.27;;
18532;SDS011;9396;51.510;11.934;2022-08-19T09:22:01;11.13;;;8.67;;
18532;SDS011;9396;51.510;11.934;2022-08-19T09:24:27;9.93;;;8.60;;
18532;SDS011;9396;51.510;11.934;2022-08-19T09:26:54;10.50;;;8.97;;
18532;SDS011;9396;51.510;11.934;2022-08-19T09:29:22;10.30;;;8.67;;
18532;SDS011;9396;51.510;11.934;2022-08-19T09:31:49;10.70;;;8.57;;
18532;SDS011;9396;51.510;11.934;2022-08-19T09:34:16;10.27;;;8.60;;
18532;SDS011;9396;51.510;11.934;2022-08-19T09:36:44;14.53;;;8.90;;
18532;SDS011;9396;51.510;11.934;2022-08-19T09:39:11;13.57;;;8.97;;
18532;SDS011;9396;51.510;11.934;2022-08-19T09:41:38;10.23;;;8.53;;
18532;SDS011;9396;51.510;11.934;2022-08-19T09:44:04;10.87;;;8.20;;
18532;SDS011;9396;51.510;11.934;2022-08-19T09:46:32;11.30;;;9.70;;
18532;SDS011;9396;51.510;11.934;2022-08-19T09:49:01;12.67;;;8.90;;
18532;SDS011;9396;51.510;11.934;2022-08-19T09:51:29;10.10;;;8.43;;
18532;SDS011;9396;51.510;11.934;2022-08-19T09:53:58;10.17;;;7.53;;
18532;SDS011;9396;51.510;11.934;2022-08-19T09:56:26;9.63;;;7.47;;
18532;SDS011;9396;51.510;11.934;2022-08-19T09:58:54;9.27;;;7.77;;
18532;SDS011;9396;51.510;11.934;2022-08-19T10:01:21;11.87;;;7.87;;
18532;SDS011;9396;51.510;11.934;2022-08-19T10:03:52;10.67;;;7.83;;
18532;SDS011;9396;51.510;11.934;2022-08-19T10:06:20;10.87;;;7.77;;
18532;SDS011;9396;51.510;11.934;2022-08-19T10:08:47;10.53;;;7.77;;
18532;SDS011;9396;51.510;11.934;2022-08-19T10:11:15;9.97;;;8.13;;
18532;SDS011;9396;51.510;11.934;2022-08-19T10:13:42;9.60;;;7.63;;
18532;SDS011;9396;51.510;11.934;2022-08-19T10:16:11;9.07;;;7.80;;
18532;SDS011;9396;51.510;11.934;2022-08-19T10:18:40;10.80;;;8.63;;
18532;SDS011;9396;51.510;11.934;2022-08-19T10:21:10;8.40;;;7.60;;
18532;SDS011;9396;51.510;11.934;2022-08-19T10:23:39;9.77;;;8.17;;
18532;SDS011;9396;51.510;11.934;2022-08-19T10:26:10;15.33;;;8.67;;
18532;SDS011;9396;51.510;11.934;2022-08-19T10:28:38;11.97;;;9.57;;
18532;SDS011;9396;51.510;11.934;2022-08-19T10:31:05;10.67;;;7.33;;
18532;SDS011;9396;51.510;11.934;2022-08-19T10:33:33;9.80;;;8.17;;
18532;SDS011;9396;51.510;11.934;2022-08-19T10:36:01;9.10;;;8.10;;
18532;SDS011;9396;51.510;11.934;2022-08-19T10:38:30;11.40;;;8.43;;
18532;SDS011;9396;51.510;11.934;2022-08-19T10:40:56;12.80;;;8.60;;
18532;SDS011;9396;51.510;11.934;2022-08-19T10:43:23;10.00;;;8.17;;
18532;SDS011;9396;51.510;11.934;2022-08-19T10:45:53;8.60;;;7.77;;
18532;SDS011;9396;51.510;11.934;2022-08-19T10:48:23;10.57;;;7.77;;
18532;SDS011;9396;51.510;11.934;2022-08-19T10:50:50;9.03;;;6.90;;
18532;SDS011;9396;51.510;11.934;2022-08-19T10:53:35;7.47;;;6.63;;
18532;SDS011;9396;51.510;11.934;2022-08-19T10:56:02;8.60;;;7.10;;
18532;SDS011;9396;51.510;11.934;2022-08-19T10:58:46;8.27;;;7.40;;
18532;SDS011;9396;51.510;11.934;2022-08-19T11:01:14;7.63;;;6.33;;
18532;SDS011;9396;51.510;11.934;2022-08-19T11:03:40;10.77;;;8.00;;
18532;SDS011;9396;51.510;11.934;2022-08-19T11:06:07;9.03;;;8.10;;
18532;SDS011;9396;51.510;11.934;2022-08-19T11:08:36;10.63;;;8.07;;
18532;SDS011;9396;51.510;11.934;2022-08-19T11:11:04;10.40;;;9.17;;
18532;SDS011;9396;51.510;11.934;2022-08-19T11:13:32;10.13;;;8.27;;
18532;SDS011;9396;51.510;11.934;2022-08-19T11:16:02;10.80;;;8.67;;
18532;SDS011;9396;51.510;11.934;2022-08-19T11:18:30;9.77;;;7.93;;
18532;SDS011;9396;51.510;11.934;2022-08-19T11:21:04;11.17;;;8.03;;
18532;SDS011;9396;51.510;11.934;2022-08-19T11:23:32;9.33;;;8.33;;
18532;SDS011;9396;51.510;11.934;2022-08-19T11:26:00;10.60;;;7.80;;
18532;SDS011;9396;51.510;11.934;2022-08-19T11:28:27;13.73;;;8.47;;
18532;SDS011;9396;51.510;11.934;2022-08-19T11:30:54;11.47;;;9.43;;
18532;SDS011;9396;51.510;11.934;2022-08-19T11:33:20;8.27;;;7.10;;
18532;SDS011;9396;51.510;11.934;2022-08-19T11:35:47;9.10;;;7.80;;
18532;SDS011;9396;51.510;11.934;2022-08-19T11:38:14;9.67;;;7.90;;
18532;SDS011;9396;51.510;11.934;2022-08-19T11:40:41;9.30;;;7.60;;
18532;SDS011;9396;51.510;11.934;2022-08-19T11:43:09;10.37;;;7.93;;
18532;SDS011;9396;51.510;11.934;2022-08-19T11:45:36;12.03;;;8.53;;
18532;SDS011;9396;51.510;11.934;2022-08-19T11:48:02;8.07;;;7.27;;
18532;SDS011;9396;51.510;11.934;2022-08-19T11:50:29;10.30;;;8.33;;
18532;SDS011;9396;51.510;11.934;2022-08-19T11:52:56;9.87;;;8.80;;
18532;SDS011;9396;51.510;11.934;2022-08-19T11:55:23;8.47;;;7.57;;
18532;SDS011;9396;51.510;11.934;2022-08-19T11:57:50;12.03;;;7.60;;
18532;SDS011;9396;51.510;11.934;2022-08-19T12:00:18;9.67;;;7.37;;
18532;SDS011;9396;51.510;11.934;2022-08-19T12:02:45;8.00;;;7.20;;
18532;SDS011;9396;51.510;11.934;2022-08-19T12:05:11;6.17;;;5.57;;
18532;SDS011;9396;51.510;11.934;2022-08-19T12:07:38;8.70;;;7.50;;
18532;SDS011;9396;51.510;11.934;2022-08-19T12:10:06;9.03;;;7.57;;
18532;SDS011;9396;51.510;11.934;2022-08-19T12:12:33;8.83;;;7.70;;
18532;SDS011;9396;51.510;11.934;2022-08-19T12:15:00;11.43;;;8.30;;
18532;SDS011;9396;51.510;11.934;2022-08-19T12:17:29;10.27;;;8.10;;
18532;SDS011;9396;51.510;11.934;2022-08-19T12:19:56;10.40;;;7.63;;
18532;SDS011;9396;51.510;11.934;2022-08-19T12:22:22;7.43;;;6.53;;
18532;SDS011;9396;51.510;11.934;2022-08-19T12:24:49;10.20;;;7.27;;
18532;SDS011;9396;51.510;11.934;2022-08-19T12:27:18;9.37;;;6.40;;
18532;SDS011;9396;51.510;11.934;2022-08-19T12:29:45;8.53;;;7.03;;
18532;SDS011;9396;51.510;11.934;2022-08-19T12:32:11;7.37;;;5.43;;
18532;SDS011;9396;51.510;11.934;2022-08-19T12:34:39;9.47;;;6.77;;
18532;SDS011;9396;51.510;11.934;2022-08-19T12:37:07;8.53;;;7.57;;
18532;SDS011;9396;51.510;11.934;2022-08-19T12:39:35;11.07;;;7.23;;
18532;SDS011;9396;51.510;11.934;2022-08-19T12:42:03;8.77;;;6.50;;
18532;SDS011;9396;51.510;11.934;2022-08-19T12:44:30;5.87;;;5.27;;
18532;SDS011;9396;51.510;11.934;2022-08-19T12:46:57;5.73;;;5.13;;
18532;SDS011;9396;51.510;11.934;2022-08-19T12:49:24;11.30;;;5.30;;
18532;SDS011;9396;51.510;11.934;2022-08-19T12:51:54;5.73;;;5.07;;
18532;SDS011;9396;51.510;11.934;2022-08-19T12:54:23;7.40;;;6.17;;
18532;SDS011;9396;51.510;11.934;2022-08-19T12:56:49;7.17;;;6.17;;
18532;SDS011;9396;51.510;11.934;2022-08-19T12:59:16;7.60;;;5.70;;
18532;SDS011;9396;51.510;11.934;2022-08-19T13:01:44;10.73;;;6.20;;
18532;SDS011;9396;51.510;11.934;2022-08-19T13:04:10;11.63;;;6.57;;
18532;SDS011;9396;51.510;11.934;2022-08-19T13:06:37;6.70;;;4.80;;
18532;SDS011;9396;51.510;11.934;2022-08-19T13:09:05;8.00;;;5.53;;
18532;SDS011;9396;51.510;11.934;2022-08-19T13:11:32;9.03;;;7.80;;
18532;SDS011;9396;51.510;11.934;2022-08-19T13:13:59;10.87;;;8.53;;
18532;SDS011;9396;51.510;11.934;2022-08-19T13:16:27;6.83;;;6.13;;
18532;SDS011;9396;51.510;11.934;2022-08-19T13:18:55;9.20;;;7.40;;
18532;SDS011;9396;51.510;11.934;2022-08-19T13:21:23;14.50;;;10.47;;
18532;SDS011;9396;51.510;11.934;2022-08-19T13:23:52;10.80;;;9.33;;
18532;SDS011;9396;51.510;11.934;2022-08-19T13:26:21;14.00;;;10.77;;
18532;SDS011;9396;51.510;11.934;2022-08-19T13:28:47;13.83;;;11.13;;
18532;SDS011;9396;51.510;11.934;2022-08-19T13:31:33;15.23;;;12.73;;
18532;SDS011;9396;51.510;11.934;2022-08-19T13:34:18;14.27;;;12.10;;
18532;SDS011;9396;51.510;11.934;2022-08-19T13:36:52;15.10;;;12.90;;
18532;SDS011;9396;51.510;11.934;2022-08-19T13:39:19;12.13;;;10.43;;
18532;SDS011;9396;51.510;11.934;2022-08-19T13:41:49;15.93;;;12.73;;
18532;SDS011;9396;51.510;11.934;2022-08-19T13:44:16;15.33;;;12.10;;
18532;SDS011;9396;51.510;11.934;2022-08-19T13:46:44;13.20;;;11.27;;
18532;SDS011;9396;51.510;11.934;2022-08-19T13:49:11;15.10;;;12.27;;
18532;SDS011;9396;51.510;11.934;2022-08-19T13:51:40;13.47;;;11.60;;
18532;SDS011;9396;51.510;11.934;2022-08-19T13:54:07;16.77;;;13.13;;
18532;SDS011;9396;51.510;11.934;2022-08-19T13:56:35;14.87;;;13.30;;
18532;SDS011;9396;51.510;11.934;2022-08-19T13:59:06;16.10;;;13.73;;
18532;SDS011;9396;51.510;11.934;2022-08-19T14:01:33;16.73;;;13.73;;
18532;SDS011;9396;51.510;11.934;2022-08-19T14:04:00;16.67;;;14.07;;
18532;SDS011;9396;51.510;11.934;2022-08-19T14:06:27;16.73;;;12.50;;
18532;SDS011;9396;51.510;11.934;2022-08-19T14:08:53;16.30;;;13.70;;
18532;SDS011;9396;51.510;11.934;2022-08-19T14:11:20;15.60;;;13.03;;
18532;SDS011;9396;51.510;11.934;2022-08-19T14:13:48;14.40;;;12.70;;
18532;SDS011;9396;51.510;11.934;2022-08-19T14:16:16;12.47;;;11.20;;
18532;SDS011;9396;51.510;11.934;2022-08-19T14:18:42;16.60;;;12.57;;
18532;SDS011;9396;51.510;11.934;2022-08-19T14:21:13;13.90;;;10.97;;
18532;SDS011;9396;51.510;11.934;2022-08-19T14:23:42;15.87;;;11.77;;
18532;SDS011;9396;51.510;11.934;2022-08-19T14:26:11;12.80;;;11.50;;
18532;SDS011;9396;51.510;11.934;2022-08-19T14:28:40;12.13;;;10.83;;
18532;SDS011;9396;51.510;11.934;2022-08-19T14:31:07;15.50;;;11.83;;
18532;SDS011;9396;51.510;11.934;2022-08-19T14:33:35;10.57;;;9.23;;
18532;SDS011;9396;51.510;11.934;2022-08-19T14:36:02;12.10;;;10.90;;